createdAt,value
2023-04-18T00:00:40.945Z,944.8
2023-04-18T00:01:42.896Z,944.7
2023-04-18T00:02:45.092Z,944.8
2023-04-18T00:03:48.245Z,944.8
2023-04-18T00:04:51.218Z,944.7
2023-04-18T00:05:53.575Z,944.8
2023-04-18T00:06:55.428Z,944.8
2023-04-18T00:07:57.267Z,944.8
2023-04-18T00:08:59.367Z,944.7
2023-04-18T00:10:01.218Z,944.8
2023-04-18T00:11:03.252Z,944.8
2023-04-18T00:12:05.384Z,944.7
2023-04-18T00:13:07.246Z,944.8
2023-04-18T00:14:09.188Z,944.7
2023-04-18T00:15:11.037Z,944.8
2023-04-18T00:16:12.896Z,944.7
2023-04-18T00:17:15.147Z,944.8
2023-04-18T00:18:17.177Z,944.8
2023-04-18T00:19:19.170Z,944.8
2023-04-18T00:20:21.003Z,944.8
2023-04-18T00:21:23.068Z,944.8
2023-04-18T00:22:24.919Z,944.8
2023-04-18T00:23:26.870Z,944.8
2023-04-18T00:24:28.712Z,944.8
2023-04-18T00:25:30.661Z,944.8
2023-04-18T00:26:32.539Z,944.8
2023-04-18T00:27:34.361Z,944.8
2023-04-18T00:28:36.426Z,944.8
2023-04-18T00:29:38.379Z,944.8
2023-04-18T00:30:40.339Z,944.8
2023-04-18T00:31:42.188Z,944.8
2023-04-18T00:32:44.272Z,944.7
2023-04-18T00:33:46.180Z,944.7
2023-04-18T00:34:48.041Z,944.8
2023-04-18T00:35:49.985Z,944.7
2023-04-18T00:36:51.841Z,944.7
2023-04-18T00:37:53.704Z,944.7
2023-04-18T00:38:55.548Z,944.7
2023-04-18T00:39:57.384Z,944.7
2023-04-18T00:40:59.241Z,944.7
2023-04-18T00:42:01.207Z,944.7
2023-04-18T00:43:03.158Z,944.7
2023-04-18T00:44:04.995Z,944.7
2023-04-18T00:45:06.838Z,944.7
2023-04-18T00:46:08.823Z,944.7
2023-04-18T00:47:10.744Z,944.7
2023-04-18T00:48:12.698Z,944.7
2023-04-18T00:49:14.547Z,944.7
2023-04-18T00:50:16.277Z,944.7
2023-04-18T00:51:18.152Z,944.7
2023-04-18T00:52:20.002Z,944.7
2023-04-18T00:53:21.957Z,944.7
2023-04-18T00:54:23.801Z,944.6
2023-04-18T00:55:25.853Z,944.7
2023-04-18T00:56:27.716Z,944.6
2023-04-18T00:57:29.585Z,944.6
2023-04-18T00:58:31.513Z,944.6
2023-04-18T00:59:33.453Z,944.6
2023-04-18T01:00:35.413Z,944.6
2023-04-18T01:01:37.373Z,944.6
2023-04-18T01:02:39.754Z,944.6
2023-04-18T01:03:42.788Z,944.6
2023-04-18T01:04:45.000Z,944.6
2023-04-18T01:05:46.809Z,944.6
2023-04-18T01:06:48.669Z,944.6
2023-04-18T01:07:50.523Z,944.6
2023-04-18T01:08:52.368Z,944.5
2023-04-18T01:09:54.331Z,944.5
2023-04-18T01:10:56.275Z,944.5
2023-04-18T01:11:58.117Z,944.6
2023-04-18T01:12:59.998Z,944.5
2023-04-18T01:14:01.937Z,944.5
2023-04-18T01:15:03.846Z,944.5
2023-04-18T01:16:05.953Z,944.6
2023-04-18T01:17:07.783Z,944.5
2023-04-18T01:18:09.641Z,944.5
2023-04-18T01:19:11.489Z,944.6
2023-04-18T01:20:13.361Z,944.5
2023-04-18T01:21:15.185Z,944.5
2023-04-18T01:22:17.034Z,944.5
2023-04-18T01:23:18.792Z,944.6
2023-04-18T01:24:20.536Z,944.6
2023-04-18T01:25:22.469Z,944.5
2023-04-18T01:26:24.535Z,944.6
2023-04-18T01:27:26.386Z,944.5
2023-04-18T01:28:28.365Z,944.6
2023-04-18T01:29:30.289Z,944.6
2023-04-18T01:30:32.345Z,944.6
2023-04-18T01:31:34.317Z,944.5
2023-04-18T01:32:36.491Z,944.5
2023-04-18T01:33:38.408Z,944.5
2023-04-18T01:34:40.252Z,944.5
2023-04-18T01:35:42.105Z,944.5
2023-04-18T01:36:43.950Z,944.5
2023-04-18T01:37:45.919Z,944.5
2023-04-18T01:38:47.756Z,944.5
2023-04-18T01:39:49.513Z,944.5
2023-04-18T01:40:51.350Z,944.4
2023-04-18T01:41:53.318Z,944.5
2023-04-18T01:42:55.172Z,944.5
2023-04-18T01:43:57.124Z,944.5
2023-04-18T01:44:59.075Z,944.4
2023-04-18T01:46:01.018Z,944.4
2023-04-18T01:47:03.334Z,944.4
2023-04-18T01:48:05.221Z,944.4
2023-04-18T01:49:07.074Z,944.4
2023-04-18T01:50:08.926Z,944.4
2023-04-18T01:51:10.694Z,944.4
2023-04-18T01:52:12.526Z,944.4
2023-04-18T01:53:14.481Z,944.4
2023-04-18T01:54:17.181Z,944.4
2023-04-18T01:55:19.001Z,944.4
2023-04-18T01:56:20.845Z,944.4
2023-04-18T01:57:22.691Z,944.4
2023-04-18T01:58:24.482Z,944.4
2023-04-18T01:59:26.425Z,944.4
2023-04-18T02:00:28.486Z,944.4
2023-04-18T02:01:30.403Z,944.4
2023-04-18T02:02:32.742Z,944.4
2023-04-18T02:03:35.742Z,944.4
2023-04-18T02:04:38.098Z,944.4
2023-04-18T02:05:39.951Z,944.5
2023-04-18T02:06:41.821Z,944.4
2023-04-18T02:07:43.571Z,944.4
2023-04-18T02:08:45.508Z,944.5
2023-04-18T02:09:47.353Z,944.5
2023-04-18T02:10:49.308Z,944.4
2023-04-18T02:11:51.160Z,944.5
2023-04-18T02:12:53.020Z,944.5
2023-04-18T02:13:54.852Z,944.5
2023-04-18T02:14:56.839Z,944.5
2023-04-18T02:15:58.988Z,944.5
2023-04-18T02:17:00.825Z,944.5
2023-04-18T02:18:02.944Z,944.5
2023-04-18T02:19:04.935Z,944.5
2023-04-18T02:20:06.884Z,944.5
2023-04-18T02:21:08.706Z,944.5
2023-04-18T02:22:10.579Z,944.5
2023-04-18T02:23:12.428Z,944.6
2023-04-18T02:24:15.436Z,944.6
2023-04-18T02:25:17.572Z,944.6
2023-04-18T02:26:19.440Z,944.6
2023-04-18T02:27:21.246Z,944.6
2023-04-18T02:28:23.117Z,944.6
2023-04-18T02:29:24.976Z,944.6
2023-04-18T02:30:26.841Z,944.6
2023-04-18T02:31:28.881Z,944.6
2023-04-18T02:32:31.059Z,944.6
2023-04-18T02:33:32.986Z,944.6
2023-04-18T02:34:34.943Z,944.6
2023-04-18T02:35:36.786Z,944.6
2023-04-18T02:36:38.644Z,944.6
2023-04-18T02:37:40.489Z,944.6
2023-04-18T02:38:42.436Z,944.6
2023-04-18T02:39:44.287Z,944.6
2023-04-18T02:40:46.248Z,944.6
2023-04-18T02:41:48.081Z,944.6
2023-04-18T02:42:50.033Z,944.5
2023-04-18T02:43:51.892Z,944.6
2023-04-18T02:44:53.638Z,944.6
2023-04-18T02:45:55.634Z,944.6
2023-04-18T02:46:57.618Z,944.6
2023-04-18T02:47:59.730Z,944.6
2023-04-18T02:49:01.551Z,944.6
2023-04-18T02:50:03.292Z,944.6
2023-04-18T02:51:05.152Z,944.6
2023-04-18T02:52:06.884Z,944.6
2023-04-18T02:53:08.856Z,944.6
2023-04-18T02:54:10.698Z,944.6
2023-04-18T02:55:12.662Z,944.6
2023-04-18T02:56:14.606Z,944.6
2023-04-18T02:57:16.455Z,944.6
2023-04-18T02:58:18.321Z,944.6
2023-04-18T02:59:20.149Z,944.6
2023-04-18T03:00:22.003Z,944.6
2023-04-18T03:01:24.106Z,944.6
2023-04-18T03:02:26.726Z,944.6
2023-04-18T03:03:28.996Z,944.6
2023-04-18T03:04:30.934Z,944.6
2023-04-18T03:05:32.884Z,944.6
2023-04-18T03:06:34.765Z,944.6
2023-04-18T03:07:36.703Z,944.6
2023-04-18T03:08:38.646Z,944.6
2023-04-18T03:09:40.599Z,944.6
2023-04-18T03:10:42.333Z,944.7
2023-04-18T03:11:44.097Z,944.6
2023-04-18T03:12:45.944Z,944.7
2023-04-18T03:13:47.898Z,944.7
2023-04-18T03:14:49.747Z,944.7
2023-04-18T03:15:51.723Z,944.7
2023-04-18T03:16:56.035Z,944.7
2023-04-18T03:17:58.077Z,944.7
2023-04-18T03:19:00.033Z,944.7
2023-04-18T03:20:01.891Z,944.7
2023-04-18T03:21:03.807Z,944.8
2023-04-18T03:22:05.661Z,944.8
2023-04-18T03:23:07.508Z,944.8
2023-04-18T03:24:12.680Z,944.8
2023-04-18T03:25:14.927Z,944.8
2023-04-18T03:26:16.758Z,944.9
2023-04-18T03:27:18.712Z,944.9
2023-04-18T03:28:20.656Z,944.8
2023-04-18T03:29:22.506Z,944.9
2023-04-18T03:30:24.379Z,944.9
2023-04-18T03:31:26.359Z,944.9
2023-04-18T03:32:28.302Z,944.9
2023-04-18T03:33:30.515Z,944.9
2023-04-18T03:34:32.372Z,944.9
2023-04-18T03:35:34.134Z,944.9
2023-04-18T03:36:35.993Z,944.9
2023-04-18T03:37:37.746Z,944.9
2023-04-18T03:38:39.558Z,944.9
2023-04-18T03:39:41.313Z,944.9
2023-04-18T03:40:43.029Z,944.9
2023-04-18T03:41:45.015Z,944.9
2023-04-18T03:42:46.969Z,944.9
2023-04-18T03:43:48.825Z,944.9
2023-04-18T03:44:50.761Z,944.9
2023-04-18T03:45:52.889Z,944.9
2023-04-18T03:46:54.870Z,944.9
2023-04-18T03:47:57.063Z,944.9
2023-04-18T03:48:58.885Z,944.9
2023-04-18T03:50:00.826Z,944.9
2023-04-18T03:51:02.681Z,944.9
2023-04-18T03:52:04.531Z,944.9
2023-04-18T03:53:06.267Z,944.9
2023-04-18T03:54:08.129Z,944.9
2023-04-18T03:55:10.085Z,944.9
2023-04-18T03:56:11.932Z,944.9
2023-04-18T03:57:13.698Z,944.9
2023-04-18T03:58:15.545Z,944.9
2023-04-18T03:59:17.385Z,944.9
2023-04-18T04:00:19.251Z,944.9
2023-04-18T04:01:21.079Z,944.9
2023-04-18T04:02:23.312Z,944.9
2023-04-18T04:03:26.022Z,944.9
2023-04-18T04:04:28.506Z,944.9
2023-04-18T04:05:30.432Z,944.9
2023-04-18T04:06:32.291Z,944.9
2023-04-18T04:07:34.039Z,944.9
2023-04-18T04:08:35.796Z,945
2023-04-18T04:09:37.636Z,944.9
2023-04-18T04:10:39.489Z,944.9
2023-04-18T04:11:41.354Z,944.9
2023-04-18T04:12:43.183Z,945
2023-04-18T04:13:45.044Z,944.9
2023-04-18T04:14:46.986Z,944.9
2023-04-18T04:15:48.813Z,945
2023-04-18T04:16:50.827Z,944.9
2023-04-18T04:17:53.084Z,944.9
2023-04-18T04:18:54.922Z,945
2023-04-18T04:19:56.764Z,945
2023-04-18T04:20:58.601Z,945
2023-04-18T04:22:00.552Z,945
2023-04-18T04:23:02.416Z,945
2023-04-18T04:24:04.255Z,945
2023-04-18T04:25:06.006Z,945
2023-04-18T04:26:07.853Z,945
2023-04-18T04:27:09.720Z,945
2023-04-18T04:28:11.542Z,945.1
2023-04-18T04:29:13.323Z,945.1
2023-04-18T04:30:15.356Z,945
2023-04-18T04:31:17.534Z,945.1
2023-04-18T04:32:19.465Z,945.1
2023-04-18T04:33:21.305Z,945.1
2023-04-18T04:34:23.070Z,945.1
2023-04-18T04:35:25.009Z,945.1
2023-04-18T04:36:26.971Z,945.1
2023-04-18T04:37:29.435Z,945.1
2023-04-18T04:38:31.792Z,945.1
2023-04-18T04:39:33.639Z,945.1
2023-04-18T04:40:35.489Z,945.1
2023-04-18T04:41:37.438Z,945.1
2023-04-18T04:42:39.288Z,945.1
2023-04-18T04:43:41.176Z,945.1
2023-04-18T04:44:43.539Z,945.1
2023-04-18T04:45:45.905Z,945.1
2023-04-18T04:46:47.939Z,945.2
2023-04-18T04:47:49.772Z,945.1
2023-04-18T04:48:51.611Z,945.2
2023-04-18T04:49:53.560Z,945.2
2023-04-18T04:50:55.357Z,945.2
2023-04-18T04:51:57.276Z,945.2
2023-04-18T04:53:00.249Z,945.2
2023-04-18T04:54:02.203Z,945.2
2023-04-18T04:55:03.942Z,945.2
2023-04-18T04:56:05.797Z,945.2
2023-04-18T04:57:07.757Z,945.2
2023-04-18T04:58:09.639Z,945.3
2023-04-18T04:59:11.524Z,945.2
2023-04-18T05:00:13.296Z,945.2
2023-04-18T05:01:15.394Z,945.3
2023-04-18T05:02:17.759Z,945.2
2023-04-18T05:03:20.162Z,945.3
2023-04-18T05:04:22.840Z,945.3
2023-04-18T05:05:25.039Z,945.3
2023-04-18T05:06:27.056Z,945.3
2023-04-18T05:07:28.941Z,945.3
2023-04-18T05:08:30.792Z,945.3
2023-04-18T05:09:32.619Z,945.3
2023-04-18T05:10:34.359Z,945.4
2023-04-18T05:11:36.208Z,945.3
2023-04-18T05:12:38.162Z,945.3
2023-04-18T05:13:40.020Z,945.3
2023-04-18T05:14:41.861Z,945.3
2023-04-18T05:15:46.473Z,945.3
2023-04-18T05:16:48.537Z,945.4
2023-04-18T05:17:50.691Z,945.3
2023-04-18T05:18:52.649Z,945.4
2023-04-18T05:19:54.600Z,945.4
2023-04-18T05:20:56.612Z,945.4
2023-04-18T05:21:58.607Z,945.4
2023-04-18T05:23:00.462Z,945.4
2023-04-18T05:24:02.408Z,945.4
2023-04-18T05:25:04.252Z,945.3
2023-04-18T05:26:05.997Z,945.3
2023-04-18T05:27:07.757Z,945.4
2023-04-18T05:28:09.595Z,945.3
2023-04-18T05:29:11.588Z,945.4
2023-04-18T05:30:13.409Z,945.4
2023-04-18T05:31:15.493Z,945.4
2023-04-18T05:32:17.301Z,945.4
2023-04-18T05:33:19.058Z,945.4
2023-04-18T05:34:21.015Z,945.4
2023-04-18T05:35:22.869Z,945.3
2023-04-18T05:36:24.757Z,945.4
2023-04-18T05:37:26.662Z,945.4
2023-04-18T05:38:28.610Z,945.4
2023-04-18T05:39:30.559Z,945.4
2023-04-18T05:40:32.526Z,945.4
2023-04-18T05:41:34.367Z,945.4
2023-04-18T05:42:36.254Z,945.4
2023-04-18T05:43:38.079Z,945.4
2023-04-18T05:44:39.952Z,945.4
2023-04-18T05:45:41.974Z,945.4
2023-04-18T05:46:44.256Z,945.4
2023-04-18T05:47:46.435Z,945.4
2023-04-18T05:48:48.467Z,945.4
2023-04-18T05:49:50.237Z,945.4
2023-04-18T05:50:52.049Z,945.4
2023-04-18T05:51:53.914Z,945.4
2023-04-18T05:52:55.855Z,945.4
2023-04-18T05:53:57.721Z,945.4
2023-04-18T05:54:59.553Z,945.4
2023-04-18T05:56:01.302Z,945.5
2023-04-18T05:57:05.164Z,945.4
2023-04-18T05:58:07.060Z,945.5
2023-04-18T05:59:08.909Z,945.5
2023-04-18T06:00:10.754Z,945.5
2023-04-18T06:01:12.589Z,945.5
2023-04-18T06:02:14.852Z,945.5
2023-04-18T06:03:17.574Z,945.5
2023-04-18T06:04:21.555Z,945.5
2023-04-18T06:05:24.975Z,945.5
2023-04-18T06:06:27.279Z,945.5
2023-04-18T06:07:29.202Z,945.5
2023-04-18T06:08:31.207Z,945.5
2023-04-18T06:09:33.223Z,945.5
2023-04-18T06:10:39.406Z,945.5
2023-04-18T06:11:41.230Z,945.5
2023-04-18T06:12:43.196Z,945.5
2023-04-18T06:13:45.062Z,945.5
2023-04-18T06:14:46.782Z,945.5
2023-04-18T06:15:48.752Z,945.5
2023-04-18T06:16:50.622Z,945.5
2023-04-18T06:17:52.754Z,945.5
2023-04-18T06:18:54.677Z,945.5
2023-04-18T06:19:56.319Z,945.5
2023-04-18T06:20:58.189Z,945.5
2023-04-18T06:22:00.163Z,945.5
2023-04-18T06:23:02.022Z,945.5
2023-04-18T06:24:03.853Z,945.5
2023-04-18T06:25:06.007Z,945.5
2023-04-18T06:26:07.954Z,945.5
2023-04-18T06:27:31.776Z,945.5
2023-04-18T06:28:33.978Z,945.5
2023-04-18T06:29:38.293Z,945.5
2023-04-18T06:30:40.129Z,945.5
2023-04-18T06:31:42.155Z,945.5
2023-04-18T06:32:44.591Z,945.5
2023-04-18T06:33:46.504Z,945.5
2023-04-18T06:34:48.356Z,945.5
2023-04-18T06:35:50.205Z,945.6
2023-04-18T06:36:52.061Z,945.5
2023-04-18T06:37:53.943Z,945.5
2023-04-18T06:38:55.776Z,945.5
2023-04-18T06:39:57.711Z,945.5
2023-04-18T06:40:59.657Z,945.5
2023-04-18T06:42:01.515Z,945.5
2023-04-18T06:43:03.465Z,945.5
2023-04-18T06:44:05.408Z,945.6
2023-04-18T06:45:07.204Z,945.5
2023-04-18T06:46:09.276Z,945.5
2023-04-18T06:47:11.190Z,945.6
2023-04-18T06:48:13.021Z,945.6
2023-04-18T06:49:14.980Z,945.6
2023-04-18T06:50:16.917Z,945.6
2023-04-18T06:51:18.980Z,945.5
2023-04-18T06:52:20.772Z,945.5
2023-04-18T06:53:22.678Z,945.5
2023-04-18T06:54:24.570Z,945.5
2023-04-18T06:55:26.490Z,945.5
2023-04-18T06:56:28.745Z,945.5
2023-04-18T06:57:30.587Z,945.5
2023-04-18T06:58:32.614Z,945.5
2023-04-18T06:59:34.500Z,945.6
2023-04-18T07:00:36.355Z,945.5
2023-04-18T07:01:38.286Z,945.5
2023-04-18T07:02:40.679Z,945.5
2023-04-18T07:03:43.110Z,945.6
2023-04-18T07:04:45.532Z,945.6
2023-04-18T07:05:47.382Z,945.6
2023-04-18T07:06:49.195Z,945.6
2023-04-18T07:07:51.032Z,945.6
2023-04-18T07:08:54.835Z,945.6
2023-04-18T07:09:56.713Z,945.6
2023-04-18T07:10:58.748Z,945.6
2023-04-18T07:12:00.594Z,945.6
2023-04-18T07:13:02.419Z,945.6
2023-04-18T07:14:04.403Z,945.6
2023-04-18T07:15:06.244Z,945.6
2023-04-18T07:16:08.091Z,945.6
2023-04-18T07:17:10.422Z,945.6
2023-04-18T07:18:30.593Z,945.6
2023-04-18T07:19:40.165Z,945.6
2023-04-18T07:20:42.099Z,945.6
2023-04-18T07:21:44.315Z,945.5
2023-04-18T07:22:46.215Z,945.6
2023-04-18T07:23:47.961Z,945.6
2023-04-18T07:24:49.721Z,945.6
2023-04-18T07:25:51.528Z,945.6
2023-04-18T07:26:55.570Z,945.6
2023-04-18T07:27:57.425Z,945.6
2023-04-18T07:28:59.278Z,945.7
2023-04-18T07:30:01.028Z,945.7
2023-04-18T07:31:03.142Z,945.6
2023-04-18T07:32:08.908Z,945.6
2023-04-18T07:33:10.862Z,945.6
2023-04-18T07:34:13.518Z,945.6
2023-04-18T07:35:15.592Z,945.6
2023-04-18T07:36:17.332Z,945.6
2023-04-18T07:37:19.012Z,945.6
2023-04-18T07:38:20.931Z,945.6
2023-04-18T07:39:22.895Z,945.6
2023-04-18T07:40:24.753Z,945.6
2023-04-18T07:41:26.610Z,945.6
2023-04-18T07:42:28.642Z,945.6
2023-04-18T07:43:30.702Z,945.6
2023-04-18T07:44:32.554Z,945.6
2023-04-18T07:45:34.405Z,945.6
2023-04-18T07:46:36.295Z,945.6
2023-04-18T07:47:38.422Z,945.7
2023-04-18T07:48:40.261Z,945.7
2023-04-18T07:49:42.204Z,945.7
2023-04-18T07:50:44.060Z,945.7
2023-04-18T07:51:45.815Z,945.6
2023-04-18T07:52:47.657Z,945.7
2023-04-18T07:53:49.515Z,945.7
2023-04-18T07:54:51.471Z,945.7
2023-04-18T07:55:53.321Z,945.7
2023-04-18T07:56:55.225Z,945.7
2023-04-18T07:57:57.213Z,945.7
2023-04-18T07:58:59.178Z,945.7
2023-04-18T08:00:01.115Z,945.7
2023-04-18T08:01:02.983Z,945.7
2023-04-18T08:02:04.837Z,945.8
2023-04-18T08:03:07.334Z,945.7
2023-04-18T08:04:10.187Z,945.7
2023-04-18T08:05:12.562Z,945.7
2023-04-18T08:06:14.576Z,945.7
2023-04-18T08:07:16.430Z,945.8
2023-04-18T08:08:18.290Z,945.8
2023-04-18T08:09:20.124Z,945.8
2023-04-18T08:10:24.367Z,945.7
2023-04-18T08:11:26.413Z,945.8
2023-04-18T08:12:28.621Z,945.8
2023-04-18T08:13:30.614Z,945.8
2023-04-18T08:14:32.369Z,945.8
2023-04-18T08:15:34.201Z,945.8
2023-04-18T08:16:36.398Z,945.8
2023-04-18T08:17:38.456Z,945.8
2023-04-18T08:18:40.474Z,945.8
2023-04-18T08:19:42.214Z,945.8
2023-04-18T08:20:44.076Z,945.8
2023-04-18T08:21:46.018Z,945.7
2023-04-18T08:23:11.407Z,945.7
2023-04-18T08:24:15.321Z,945.8
2023-04-18T08:25:17.166Z,945.8
2023-04-18T08:26:19.118Z,945.8
2023-04-18T08:27:20.969Z,945.8
2023-04-18T08:28:22.841Z,945.8
2023-04-18T08:29:25.165Z,945.8
2023-04-18T08:30:27.143Z,945.8
2023-04-18T08:31:29.213Z,945.8
2023-04-18T08:32:31.497Z,945.8
2023-04-18T08:33:33.339Z,945.8
2023-04-18T08:34:35.162Z,945.9
2023-04-18T08:35:36.999Z,945.8
2023-04-18T08:36:38.791Z,945.8
2023-04-18T08:37:40.596Z,945.8
2023-04-18T08:38:42.515Z,945.9
2023-04-18T08:39:44.336Z,945.8
2023-04-18T08:40:46.208Z,945.8
2023-04-18T08:41:48.036Z,945.8
2023-04-18T08:42:49.949Z,945.8
2023-04-18T08:43:51.976Z,945.7
2023-04-18T08:44:53.855Z,945.8
2023-04-18T08:45:56.016Z,945.8
2023-04-18T08:46:57.873Z,945.8
2023-04-18T08:47:59.856Z,945.7
2023-04-18T08:49:02.034Z,945.7
2023-04-18T08:50:03.929Z,945.7
2023-04-18T08:51:05.764Z,945.7
2023-04-18T08:52:07.511Z,945.7
2023-04-18T08:53:09.360Z,945.7
2023-04-18T08:54:11.225Z,945.7
2023-04-18T08:55:13.273Z,945.7
2023-04-18T08:56:15.433Z,945.7
2023-04-18T08:57:17.280Z,945.7
2023-04-18T08:58:19.129Z,945.7
2023-04-18T08:59:21.686Z,945.7
2023-04-18T09:00:23.621Z,945.7
2023-04-18T09:01:25.767Z,945.7
2023-04-18T09:02:27.864Z,945.7
2023-04-18T09:03:30.042Z,945.7
2023-04-18T09:04:32.205Z,945.7
2023-04-18T09:05:34.068Z,945.7
2023-04-18T09:06:35.869Z,945.7
2023-04-18T09:07:37.626Z,945.7
2023-04-18T09:08:39.376Z,945.7
2023-04-18T09:09:41.216Z,945.7
2023-04-18T09:10:46.957Z,945.7
2023-04-18T09:11:48.787Z,945.7
2023-04-18T09:12:51.178Z,945.7
2023-04-18T09:13:52.997Z,945.7
2023-04-18T09:14:54.907Z,945.6
2023-04-18T09:15:57.140Z,945.7
2023-04-18T09:16:59.363Z,945.7
2023-04-18T09:18:01.556Z,945.7
2023-04-18T09:19:07.081Z,945.7
2023-04-18T09:20:08.941Z,945.7
2023-04-18T09:21:10.894Z,945.7
2023-04-18T09:22:12.742Z,945.7
2023-04-18T09:23:14.941Z,945.7
2023-04-18T09:24:16.964Z,945.7
2023-04-18T09:25:18.695Z,945.7
2023-04-18T09:26:20.554Z,945.7
2023-04-18T09:27:23.316Z,945.7
2023-04-18T09:28:25.078Z,945.7
2023-04-18T09:29:27.028Z,945.7
2023-04-18T09:30:29.029Z,945.7
2023-04-18T09:31:31.639Z,945.7
2023-04-18T09:32:33.722Z,945.7
2023-04-18T09:33:35.555Z,945.8
2023-04-18T09:34:37.278Z,945.8
2023-04-18T09:35:39.152Z,945.8
2023-04-18T09:36:41.017Z,945.7
2023-04-18T09:37:42.846Z,945.7
2023-04-18T09:38:44.705Z,945.7
2023-04-18T09:39:46.660Z,945.7
2023-04-18T09:40:48.607Z,945.7
2023-04-18T09:41:50.455Z,945.7
2023-04-18T09:42:52.307Z,945.7
2023-04-18T09:43:54.133Z,945.6
2023-04-18T09:44:57.240Z,945.7
2023-04-18T09:45:59.410Z,945.7
2023-04-18T09:47:01.699Z,945.7
2023-04-18T09:48:03.867Z,945.7
2023-04-18T09:49:05.766Z,945.7
2023-04-18T09:50:07.536Z,945.7
2023-04-18T09:51:09.352Z,945.6
2023-04-18T09:52:11.309Z,945.7
2023-04-18T09:53:13.065Z,945.6
2023-04-18T09:54:15.738Z,945.7
2023-04-18T09:55:17.914Z,945.7
2023-04-18T09:56:19.724Z,945.6
2023-04-18T09:57:21.582Z,945.7
2023-04-18T09:58:23.444Z,945.6
2023-04-18T09:59:25.306Z,945.6
2023-04-18T10:00:27.132Z,945.6
2023-04-18T10:01:29.565Z,945.6
2023-04-18T10:02:32.145Z,945.6
2023-04-18T10:03:34.259Z,945.6
2023-04-18T10:04:36.534Z,945.6
2023-04-18T10:05:38.566Z,945.6
2023-04-18T10:06:40.596Z,945.6
2023-04-18T10:07:42.541Z,945.6
2023-04-18T10:08:44.397Z,945.6
2023-04-18T10:09:46.059Z,945.6
2023-04-18T10:10:47.981Z,945.7
2023-04-18T10:11:49.830Z,945.6
2023-04-18T10:12:51.899Z,945.6
2023-04-18T10:13:53.938Z,945.6
2023-04-18T10:14:55.721Z,945.6
2023-04-18T10:15:57.864Z,945.6
2023-04-18T10:16:59.928Z,945.6
2023-04-18T10:18:06.808Z,945.6
2023-04-18T10:19:08.899Z,945.6
2023-04-18T10:20:10.682Z,945.5
2023-04-18T10:21:12.536Z,945.5
2023-04-18T10:22:14.399Z,945.5
2023-04-18T10:23:16.224Z,945.5
2023-04-18T10:24:17.980Z,945.5
2023-04-18T10:25:19.835Z,945.5
2023-04-18T10:26:21.615Z,945.5
2023-04-18T10:27:23.427Z,945.5
2023-04-18T10:28:25.276Z,945.5
2023-04-18T10:29:27.025Z,945.5
2023-04-18T10:30:28.870Z,945.4
2023-04-18T10:31:31.060Z,945.5
2023-04-18T10:32:33.333Z,945.4
2023-04-18T10:33:42.629Z,945.4
2023-04-18T10:34:44.774Z,945.4
2023-04-18T10:35:46.523Z,945.5
2023-04-18T10:36:48.364Z,945.4
2023-04-18T10:37:50.118Z,945.4
2023-04-18T10:38:51.964Z,945.4
2023-04-18T10:39:53.912Z,945.4
2023-04-18T10:40:55.883Z,945.4
2023-04-18T10:41:57.751Z,945.4
2023-04-18T10:42:59.678Z,945.4
2023-04-18T10:44:01.519Z,945.4
2023-04-18T10:45:03.422Z,945.4
2023-04-18T10:46:05.223Z,945.3
2023-04-18T10:47:07.379Z,945.3
2023-04-18T10:48:09.372Z,945.3
2023-04-18T10:49:12.543Z,945.4
2023-04-18T10:50:15.129Z,945.3
2023-04-18T10:51:17.143Z,945.3
2023-04-18T10:52:18.913Z,945.3
2023-04-18T10:53:20.733Z,945.3
2023-04-18T10:54:22.488Z,945.3
2023-04-18T10:55:24.433Z,945.3
2023-04-18T10:56:26.536Z,945.4
2023-04-18T10:57:28.465Z,945.3
2023-04-18T10:58:30.295Z,945.3
2023-04-18T10:59:32.054Z,945.3
2023-04-18T11:00:34.008Z,945.2
2023-04-18T11:01:36.147Z,945.2
2023-04-18T11:02:38.358Z,945.2
2023-04-18T11:03:40.848Z,945.2
2023-04-18T11:04:43.129Z,945.2
2023-04-18T11:05:46.300Z,945.2
2023-04-18T11:06:48.690Z,945.2
2023-04-18T11:07:50.524Z,945.2
2023-04-18T11:08:52.311Z,945.2
2023-04-18T11:09:54.120Z,945.2
2023-04-18T11:10:56.185Z,945.2
2023-04-18T11:11:58.246Z,945.1
2023-04-18T11:13:00.113Z,945.2
2023-04-18T11:14:01.960Z,945.2
2023-04-18T11:15:03.716Z,945.2
2023-04-18T11:16:05.662Z,945.2
2023-04-18T11:17:07.798Z,945.1
2023-04-18T11:18:09.875Z,945.2
2023-04-18T11:19:11.935Z,945.1
2023-04-18T11:20:13.964Z,945.2
2023-04-18T11:21:15.930Z,945.1
2023-04-18T11:22:17.900Z,945.1
2023-04-18T11:23:19.821Z,945.1
2023-04-18T11:24:21.782Z,945.1
2023-04-18T11:25:23.627Z,945.1
2023-04-18T11:26:25.470Z,945.1
2023-04-18T11:27:27.429Z,945.1
2023-04-18T11:28:29.381Z,945.1
2023-04-18T11:29:31.193Z,945.1
2023-04-18T11:30:33.170Z,945.2
2023-04-18T11:31:35.273Z,945.1
2023-04-18T11:32:37.515Z,945.1
2023-04-18T11:33:39.439Z,945.2
2023-04-18T11:34:41.248Z,945.1
2023-04-18T11:35:43.057Z,945.1
2023-04-18T11:36:45.602Z,945.1
2023-04-18T11:37:47.670Z,945.1
2023-04-18T11:38:49.512Z,945.1
2023-04-18T11:39:51.438Z,945
2023-04-18T11:40:53.745Z,945
2023-04-18T11:41:55.701Z,945
2023-04-18T11:42:57.535Z,945
2023-04-18T11:43:59.322Z,945
2023-04-18T11:45:01.175Z,945
2023-04-18T11:46:03.147Z,945.1
2023-04-18T11:47:04.868Z,945.1
2023-04-18T11:48:06.870Z,945.1
2023-04-18T11:49:08.843Z,945.1
2023-04-18T11:50:10.616Z,945.1
2023-04-18T11:51:12.624Z,945.1
2023-04-18T11:52:14.585Z,945.1
2023-04-18T11:53:16.383Z,945.2
2023-04-18T11:54:18.282Z,945.1
2023-04-18T11:55:20.139Z,945.1
2023-04-18T11:56:21.886Z,945.1
2023-04-18T11:57:23.630Z,945.1
2023-04-18T11:58:25.491Z,945.1
2023-04-18T11:59:27.436Z,945.1
2023-04-18T12:00:29.286Z,945.1
2023-04-18T12:01:31.268Z,945.1
2023-04-18T12:02:33.441Z,945.2
2023-04-18T12:03:36.233Z,945.1
2023-04-18T12:04:40.251Z,945.1
2023-04-18T12:05:43.160Z,945.2
2023-04-18T12:06:45.395Z,945.1
2023-04-18T12:07:47.370Z,945.1
2023-04-18T12:08:49.130Z,945.1
2023-04-18T12:09:51.047Z,945.2
2023-04-18T12:10:52.911Z,945.2
2023-04-18T12:11:54.748Z,945.1
2023-04-18T12:12:56.512Z,945.1
2023-04-18T12:13:58.354Z,945.1
2023-04-18T12:15:00.401Z,945.1
2023-04-18T12:16:02.543Z,945.1
2023-04-18T12:17:04.495Z,945.2
2023-04-18T12:18:06.583Z,945.1
2023-04-18T12:19:08.418Z,945.1
2023-04-18T12:20:10.269Z,945.1
2023-04-18T12:21:12.260Z,945.1
2023-04-18T12:22:14.180Z,945.1
2023-04-18T12:23:16.023Z,945.1
2023-04-18T12:24:17.879Z,945.2
2023-04-18T12:25:19.812Z,945.1
2023-04-18T12:26:21.775Z,945.2
2023-04-18T12:27:23.629Z,945.1
2023-04-18T12:28:25.495Z,945.1
2023-04-18T12:29:27.342Z,945.2
2023-04-18T12:30:29.617Z,945.1
2023-04-18T12:31:31.450Z,945.1
2023-04-18T12:32:33.504Z,945.1
2023-04-18T12:33:35.444Z,945.2
2023-04-18T12:34:37.293Z,945.2
2023-04-18T12:35:39.262Z,945.2
2023-04-18T12:36:41.155Z,945.2
2023-04-18T12:37:43.164Z,945.2
2023-04-18T12:38:45.018Z,945.2
2023-04-18T12:39:46.759Z,945.2
2023-04-18T12:40:48.608Z,945.2
2023-04-18T12:41:50.672Z,945.2
2023-04-18T12:42:52.502Z,945.2
2023-04-18T12:43:54.348Z,945.2
2023-04-18T12:44:56.197Z,945.3
2023-04-18T12:45:58.162Z,945.3
2023-04-18T12:47:00.020Z,945.2
2023-04-18T12:48:02.086Z,945.3
2023-04-18T12:49:04.127Z,945.2
2023-04-18T12:50:06.067Z,945.3
2023-04-18T12:51:08.017Z,945.3
2023-04-18T12:52:10.140Z,945.3
2023-04-18T12:53:12.145Z,945.3
2023-04-18T12:54:14.777Z,945.3
2023-04-18T12:55:16.895Z,945.3
2023-04-18T12:56:18.710Z,945.3
2023-04-18T12:57:20.569Z,945.3
2023-04-18T12:58:22.405Z,945.3
2023-04-18T12:59:24.151Z,945.3
2023-04-18T13:00:26.114Z,945.3
2023-04-18T13:01:28.299Z,945.3
2023-04-18T13:02:30.816Z,945.3
2023-04-18T13:03:33.264Z,945.3
2023-04-18T13:04:36.386Z,945.3
2023-04-18T13:05:38.736Z,945.3
2023-04-18T13:06:40.579Z,945.3
2023-04-18T13:07:42.416Z,945.3
2023-04-18T13:08:44.280Z,945.3
2023-04-18T13:09:46.129Z,945.3
2023-04-18T13:10:48.390Z,945.3
2023-04-18T13:11:50.349Z,945.3
2023-04-18T13:12:52.203Z,945.4
2023-04-18T13:13:54.056Z,945.4
2023-04-18T13:14:55.796Z,945.4
2023-04-18T13:15:57.477Z,945.4
2023-04-18T13:16:59.566Z,945.4
2023-04-18T13:18:01.711Z,945.4
2023-04-18T13:19:03.601Z,945.4
2023-04-18T13:20:05.353Z,945.3
2023-04-18T13:21:07.214Z,945.3